Time;durP1;ratioP1;P1;durP2;ratioP2;P2;SDS_P1;SDS_P2;PMS_P1;PMS_P2;Temp;Humidity;BMP_temperature;BMP_pressure;BME280_temperature;BME280_humidity;BME280_pressure;Samples;Min_cycle;Max_cycle;Signal;HPM_P1;HPM_P2
2021/07/17 00:00:16;;;;;;;9.45;4.60;;;;;;;24.93;47.47;100129.00;5011096;28;20109;-70
2021/07/17 00:02:44;;;;;;;12.27;4.85;;;;;;;25.00;47.21;100130.41;5011153;28;20460;-71
2021/07/17 00:05:16;;;;;;;11.65;5.00;;;;;;;25.06;47.09;100131.91;5011431;28;20088;-70
2021/07/17 00:07:45;;;;;;;9.45;5.32;;;;;;;25.07;46.99;100119.28;5011183;28;20066;-70
2021/07/17 00:10:15;;;;;;;9.38;5.00;;;;;;;25.06;47.05;100114.84;5010805;28;20038;-70
2021/07/17 00:12:43;;;;;;;10.77;5.70;;;;;;;25.04;46.97;100114.03;5010932;28;20085;-70
2021/07/17 00:15:14;;;;;;;10.32;5.35;;;;;;;24.96;47.21;100118.03;5010863;28;20447;-70
2021/07/17 00:17:42;;;;;;;9.68;5.07;;;;;;;24.91;47.19;100119.22;5010658;28;20034;-69
2021/07/17 00:20:11;;;;;;;11.88;5.00;;;;;;;24.72;47.71;100113.91;5010529;28;20061;-70
2021/07/17 00:22:39;;;;;;;12.52;5.35;;;;;;;24.45;48.59;100118.91;5008631;28;20034;-70
2021/07/17 00:25:09;;;;;;;10.23;5.15;;;;;;;24.50;48.37;100113.28;5010474;28;20124;-70
2021/07/17 00:27:39;;;;;;;9.18;5.00;;;;;;;24.51;48.63;100105.09;5010246;28;20120;-69
2021/07/17 00:30:09;;;;;;;9.10;5.35;;;;;;;24.42;48.59;100102.88;5006702;28;20078;-70
2021/07/17 00:32:37;;;;;;;11.85;5.07;;;;;;;24.45;48.70;100099.16;4991036;28;20441;-69
2021/07/17 00:35:06;;;;;;;8.68;4.90;;;;;;;24.45;48.50;100102.72;5010474;28;20062;-70
2021/07/17 00:37:35;;;;;;;10.52;5.30;;;;;;;24.44;48.45;100111.78;5010153;28;20052;-70
2021/07/17 00:40:05;;;;;;;12.85;5.57;;;;;;;24.37;48.78;100112.16;5010690;28;20504;-70
2021/07/17 00:42:33;;;;;;;11.48;5.28;;;;;;;24.34;48.81;100105.13;5009749;28;20042;-69
2021/07/17 00:45:02;;;;;;;10.38;5.18;;;;;;;24.31;49.41;100102.56;5011081;28;20084;-70
2021/07/17 00:47:31;;;;;;;11.00;4.95;;;;;;;24.39;49.34;100105.75;5010592;28;20061;-70
2021/07/17 00:49:59;;;;;;;11.70;5.38;;;;;;;24.34;49.57;100096.16;4994907;28;20070;-70
2021/07/17 00:52:28;;;;;;;12.35;6.28;;;;;;;24.30;50.08;100091.84;5013052;28;20118;-70
2021/07/17 00:54:58;;;;;;;9.88;5.32;;;;;;;24.34;50.33;100094.31;5009819;28;20045;-70
2021/07/17 00:57:27;;;;;;;10.20;5.68;;;;;;;24.38;50.63;100095.03;5014236;28;20058;-70
2021/07/17 00:59:58;;;;;;;11.65;5.50;;;;;;;24.29;50.93;100096.38;4995982;28;20438;-70
2021/07/17 01:02:31;;;;;;;10.75;5.43;;;;;;;24.22;51.08;100085.00;5013783;28;20050;-70
2021/07/17 01:05:00;;;;;;;11.98;5.00;;;;;;;24.25;50.58;100094.78;5014220;28;20046;-70
2021/07/17 01:07:28;;;;;;;10.77;5.35;;;;;;;24.28;50.07;100091.06;4996812;28;20123;-70
2021/07/17 01:09:55;;;;;;;9.27;5.65;;;;;;;24.13;50.29;100095.38;5013401;28;20042;-70
2021/07/17 01:12:23;;;;;;;9.77;5.55;;;;;;;24.11;50.40;100092.75;5013992;28;20381;-70
2021/07/17 01:14:54;;;;;;;9.85;5.38;;;;;;;24.15;50.45;100086.28;5013661;28;20120;-70
2021/07/17 01:17:21;;;;;;;11.90;5.85;;;;;;;24.04;50.87;100085.94;5013812;28;20048;-70
2021/07/17 01:19:51;;;;;;;8.65;4.70;;;;;;;24.07;50.88;100082.22;5013528;28;20124;-70
2021/07/17 01:22:20;;;;;;;8.90;5.00;;;;;;;23.92;51.22;100088.38;5013830;28;20113;-70
2021/07/17 01:24:48;;;;;;;11.25;5.47;;;;;;;23.94;51.23;100087.34;5013574;28;20046;-70
2021/07/17 01:27:17;;;;;;;10.50;5.72;;;;;;;23.93;51.40;100087.44;5013467;28;20038;-70
2021/07/17 01:29:46;;;;;;;10.48;5.80;;;;;;;23.98;51.43;100086.25;5013626;28;20117;-70
2021/07/17 01:32:15;;;;;;;10.25;5.78;;;;;;;24.02;51.72;100085.16;4996184;28;20052;-70
2021/07/17 01:34:42;;;;;;;10.50;5.68;;;;;;;24.03;52.00;100077.91;4996203;28;20050;-70
2021/07/17 01:37:10;;;;;;;11.68;5.45;;;;;;;24.07;52.27;100085.78;5012008;28;20123;-71
2021/07/17 01:39:40;;;;;;;11.95;4.85;;;;;;;23.98;52.49;100077.28;5012743;28;20030;-70
2021/07/17 01:42:09;;;;;;;15.70;6.20;;;;;;;23.79;53.01;100070.13;5012760;28;20064;-70
2021/07/17 01:44:43;;;;;;;11.40;5.45;;;;;;;23.72;53.93;100075.88;5012661;28;20452;-70
2021/07/17 01:47:12;;;;;;;11.50;5.43;;;;;;;23.72;54.20;100070.50;5011557;28;20037;-70
2021/07/17 01:49:41;;;;;;;9.80;5.63;;;;;;;23.83;53.30;100073.50;5004935;28;20113;-70
2021/07/17 01:52:09;;;;;;;11.95;5.32;;;;;;;23.79;53.15;100077.31;5011917;28;20547;-70
2021/07/17 01:54:41;;;;;;;11.38;4.97;;;;;;;23.73;53.01;100069.53;5013307;28;20041;-70
2021/07/17 01:57:15;;;;;;;13.20;5.53;;;;;;;23.62;53.54;100070.09;5011759;28;20136;-69
2021/07/17 01:59:45;;;;;;;12.98;6.40;;;;;;;23.57;54.17;100061.34;5010633;28;20053;-70
2021/07/17 02:02:13;;;;;;;11.88;5.53;;;;;;;23.67;54.00;100065.34;5010675;28;20663;-70
2021/07/17 02:04:41;;;;;;;11.00;6.07;;;;;;;23.74;53.72;100058.69;5011163;28;20460;-70
2021/07/17 02:07:09;;;;;;;11.88;5.57;;;;;;;23.80;52.93;100071.88;4992161;28;20133;-70
2021/07/17 02:09:39;;;;;;;10.73;5.05;;;;;;;23.76;52.65;100072.09;5010390;28;20118;-69
2021/07/17 02:12:08;;;;;;;9.93;5.20;;;;;;;23.72;52.62;100071.38;5011245;28;20128;-70
2021/07/17 02:14:37;;;;;;;11.38;5.10;;;;;;;23.70;52.30;100067.88;5012695;28;20124;-70
2021/07/17 02:17:06;;;;;;;9.63;5.03;;;;;;;23.70;52.13;100064.28;5012785;28;20078;-69
2021/07/17 02:19:34;;;;;;;10.32;5.07;;;;;;;23.68;52.23;100063.50;5010746;28;20069;-69
2021/07/17 02:22:02;;;;;;;9.55;5.30;;;;;;;23.68;52.32;100072.47;5011321;28;20088;-69
2021/07/17 02:24:30;;;;;;;10.25;4.82;;;;;;;23.69;52.05;100062.56;5009968;28;20034;-70
2021/07/17 02:27:04;;;;;;;8.80;5.32;;;;;;;23.61;52.05;100059.38;5010138;28;20046;-70
2021/07/17 02:29:31;;;;;;;10.68;5.80;;;;;;;23.38;52.50;100061.31;5005628;28;20563;-70
2021/07/17 02:31:58;;;;;;;12.20;5.55;;;;;;;23.32;53.53;100063.44;5007920;28;20042;-70
2021/07/17 02:34:26;;;;;;;11.35;5.28;;;;;;;23.30;53.96;100060.81;5010364;28;20558;-70
2021/07/17 02:36:53;;;;;;;10.18;5.30;;;;;;;23.35;53.99;100072.25;5010073;28;20065;-70
2021/07/17 02:39:23;;;;;;;12.23;5.82;;;;;;;23.39;54.13;100068.47;5009873;28;20496;-70
2021/07/17 02:41:51;;;;;;;11.50;5.18;;;;;;;23.39;53.97;100071.16;5009523;28;20038;-70
2021/07/17 02:44:20;;;;;;;13.15;5.50;;;;;;;23.40;54.06;100075.59;5009956;28;20583;-70
2021/07/17 02:46:47;;;;;;;8.95;4.82;;;;;;;23.43;53.77;100077.28;5010133;28;20058;-70
2021/07/17 02:49:16;;;;;;;12.13;6.32;;;;;;;23.47;53.36;100089.69;5009260;28;20062;-70
2021/07/17 02:51:44;;;;;;;9.32;5.68;;;;;;;23.46;53.19;100096.00;5007977;28;20495;-70
2021/07/17 02:54:11;;;;;;;8.23;5.47;;;;;;;23.38;53.31;100090.09;5012163;28;20124;-70
2021/07/17 02:56:39;;;;;;;11.70;5.50;;;;;;;23.33;53.64;100094.81;5010740;28;20107;-70
2021/07/17 02:59:07;;;;;;;9.95;5.38;;;;;;;23.31;54.00;100089.50;5009750;28;20430;-70
2021/07/17 03:01:37;;;;;;;14.60;5.80;;;;;;;23.22;54.51;100089.97;5009479;28;20115;-70
2021/07/17 03:04:05;;;;;;;13.02;5.68;;;;;;;23.13;55.17;100095.75;5011599;28;20038;-70
2021/07/17 03:06:33;;;;;;;12.52;6.07;;;;;;;23.23;55.26;100104.31;5012115;28;20061;-70
2021/07/17 03:09:03;;;;;;;11.98;5.22;;;;;;;23.18;55.88;100107.19;5011224;28;20114;-70
2021/07/17 03:11:31;;;;;;;10.05;4.97;;;;;;;23.20;55.96;100112.50;5011894;28;20526;-70
2021/07/17 03:14:00;;;;;;;13.63;5.05;;;;;;;23.21;55.73;100107.06;5011937;28;20430;-70
2021/07/17 03:16:28;;;;;;;12.65;5.85;;;;;;;23.19;55.83;100108.94;5011731;28;20042;-70
2021/07/17 03:18:57;;;;;;;13.93;5.97;;;;;;;23.07;55.73;100108.63;5011669;28;20050;-70
2021/07/17 03:21:25;;;;;;;12.13;4.90;;;;;;;23.12;55.38;100122.75;5011158;28;20125;-70
2021/07/17 03:23:54;;;;;;;10.10;5.10;;;;;;;23.17;55.28;100113.50;5011192;28;20050;-70
2021/07/17 03:26:22;;;;;;;10.68;5.78;;;;;;;23.10;55.75;100119.28;5011184;28;20153;-70
2021/07/17 03:28:49;;;;;;;13.77;5.78;;;;;;;23.05;56.07;100119.47;4994050;28;20042;-70
2021/07/17 03:31:17;;;;;;;10.75;5.00;;;;;;;23.11;56.06;100116.50;5011755;28;20124;-71
2021/07/17 03:33:46;;;;;;;11.30;5.60;;;;;;;23.32;55.52;100128.09;5012016;28;20133;-70
2021/07/17 03:36:15;;;;;;;12.57;5.40;;;;;;;23.48;54.95;100130.97;5011129;28;20050;-70
2021/07/17 03:38:45;;;;;;;15.55;6.65;;;;;;;23.58;55.02;100135.84;5011461;28;20112;-70
2021/07/17 03:41:13;;;;;;;13.93;5.57;;;;;;;23.68;55.40;100128.22;5010874;28;20381;-70
2021/07/17 03:43:41;;;;;;;9.85;4.82;;;;;;;23.77;55.50;100130.44;4993588;28;20550;-70
2021/07/17 03:46:11;;;;;;;16.35;6.18;;;;;;;23.86;55.92;100130.00;5010825;28;20479;-70
2021/07/17 03:48:40;;;;;;;13.60;5.13;;;;;;;23.99;56.22;100131.13;5009843;28;20092;-70
2021/07/17 03:51:09;;;;;;;13.18;5.32;;;;;;;24.13;56.05;100131.34;5010654;28;20086;-70
2021/07/17 03:53:39;;;;;;;15.27;4.82;;;;;;;24.20;56.55;100130.09;4993434;28;20119;-70
2021/07/17 03:56:08;;;;;;;17.02;5.68;;;;;;;24.27;56.93;100143.28;5010895;28;20068;-70
2021/07/17 03:58:37;;;;;;;18.00;5.50;;;;;;;24.32;57.50;100135.81;5010762;28;20046;-70
2021/07/17 04:01:05;;;;;;;13.90;5.45;;;;;;;24.40;57.56;100145.28;5011275;28;20030;-70
2021/07/17 04:03:33;;;;;;;12.50;5.20;;;;;;;24.56;57.70;100145.34;5012009;28;20129;-70
2021/07/17 04:06:01;;;;;;;17.42;5.30;;;;;;;24.71;57.70;100146.38;4993723;28;20038;-70
2021/07/17 04:08:28;;;;;;;25.05;6.60;;;;;;;24.84;57.84;100148.34;5010771;28;20034;-70
2021/07/17 04:10:59;;;;;;;12.68;5.20;;;;;;;25.00;57.92;100146.63;5010746;28;20042;-70
2021/07/17 04:13:27;;;;;;;14.40;5.43;;;;;;;25.14;57.77;100148.56;5011217;28;20488;-70
2021/07/17 04:15:55;;;;;;;12.55;5.07;;;;;;;25.25;57.62;100135.34;5010482;28;20096;-70
2021/07/17 04:18:22;;;;;;;13.40;4.90;;;;;;;25.39;57.36;100135.47;5011143;28;20034;-70
2021/07/17 04:20:50;;;;;;;11.40;5.00;;;;;;;25.57;57.57;100140.81;5010867;28;20402;-70
2021/07/17 04:23:18;;;;;;;11.98;4.57;;;;;;;25.73;57.51;100137.16;5010393;28;20057;-70
2021/07/17 04:25:46;;;;;;;15.93;4.88;;;;;;;25.98;57.42;100136.66;5012732;28;20496;-70
2021/07/17 04:28:15;;;;;;;14.18;4.93;;;;;;;26.23;57.41;100146.03;5014610;28;20062;-70
2021/07/17 04:30:43;;;;;;;14.00;4.70;;;;;;;26.46;57.01;100137.44;5015528;28;20587;-70
2021/07/17 04:33:10;;;;;;;11.52;4.35;;;;;;;26.51;57.10;100132.63;5015055;28;20595;-71
2021/07/17 04:35:38;;;;;;;14.23;4.85;;;;;;;26.53;57.20;100133.41;5014935;28;20052;-70
2021/07/17 04:38:05;;;;;;;11.77;5.57;;;;;;;26.70;57.58;100135.97;5014779;28;20053;-70
2021/07/17 04:40:33;;;;;;;14.55;5.10;;;;;;;26.99;57.61;100120.66;5015000;28;20042;-71
2021/07/17 04:43:10;;;;;;;16.30;5.07;;;;;;;27.30;56.77;100125.03;5014808;28;20121;-70
2021/07/17 04:45:39;;;;;;;14.70;4.80;;;;;;;27.58;56.31;100122.28;5013868;28;20106;-70
2021/07/17 04:48:07;;;;;;;16.23;4.72;;;;;;;27.85;55.84;100127.75;5014732;28;20463;-70
2021/07/17 04:50:38;;;;;;;14.10;5.30;;;;;;;28.17;55.46;100132.91;5013103;28;20041;-70
2021/07/17 04:53:06;;;;;;;13.82;5.22;;;;;;;28.47;55.28;100126.28;4994907;28;20054;-70
2021/07/17 04:55:35;;;;;;;14.32;4.70;;;;;;;28.77;55.05;100130.59;4995076;28;20400;-70
2021/07/17 04:58:03;;;;;;;12.30;4.43;;;;;;;29.11;54.43;100124.53;4994603;28;20042;-71
2021/07/17 05:00:30;;;;;;;14.50;4.18;;;;;;;29.43;54.21;100124.09;4994659;28;20035;-71
2021/07/17 05:02:59;;;;;;;12.35;4.22;;;;;;;29.82;53.50;100123.00;5008243;28;20060;-71
2021/07/17 05:05:27;;;;;;;15.38;5.40;;;;;;;30.09;53.35;100131.84;5014443;28;20124;-71
2021/07/17 05:07:59;;;;;;;13.82;4.13;;;;;;;30.36;52.59;100135.22;5014113;28;20080;-70
2021/07/17 05:10:27;;;;;;;11.07;4.47;;;;;;;30.66;52.02;100131.13;4997477;28;20068;-71
2021/07/17 05:12:54;;;;;;;12.48;4.22;;;;;;;30.92;51.54;100131.84;5013510;28;20144;-70
2021/07/17 05:15:23;;;;;;;14.68;4.88;;;;;;;31.20;50.80;100126.81;5014086;28;20042;-70
2021/07/17 05:17:52;;;;;;;18.70;4.95;;;;;;;31.56;49.87;100128.44;5013346;28;20129;-70
2021/07/17 05:20:23;;;;;;;13.55;3.72;;;;;;;31.87;49.15;100125.94;5013611;28;20040;-70
2021/07/17 05:22:50;;;;;;;15.50;4.18;;;;;;;32.12;48.27;100128.34;5013463;28;20056;-70
2021/07/17 05:25:18;;;;;;;10.20;3.70;;;;;;;32.39;47.23;100125.16;5013379;28;20129;-71
2021/07/17 05:27:47;;;;;;;14.95;3.78;;;;;;;32.61;46.50;100129.66;5013868;28;20411;-71
2021/07/17 05:30:16;;;;;;;13.63;3.72;;;;;;;32.78;45.93;100123.63;5013221;28;20034;-70
2021/07/17 05:32:44;;;;;;;16.35;4.03;;;;;;;33.06;45.15;100128.41;5012286;28;20587;-71
2021/07/17 05:35:12;;;;;;;13.10;3.83;;;;;;;33.21;45.13;100121.59;5013506;28;20121;-70
2021/07/17 05:37:41;;;;;;;14.48;3.88;;;;;;;33.55;44.59;100129.53;5012268;28;20034;-70
2021/07/17 05:40:10;;;;;;;10.10;3.50;;;;;;;33.75;43.94;100123.16;5013115;28;20100;-70
2021/07/17 05:42:38;;;;;;;8.88;3.45;;;;;;;33.99;43.50;100126.41;5013010;28;20127;-71
2021/07/17 05:45:07;;;;;;;12.38;4.18;;;;;;;34.11;42.78;100126.25;5013561;28;20045;-70
2021/07/17 05:47:35;;;;;;;10.70;2.92;;;;;;;34.24;42.83;100133.25;5009146;28;20058;-70
2021/07/17 05:50:03;;;;;;;12.73;4.03;;;;;;;34.48;41.95;100129.19;5008085;28;20057;-70
2021/07/17 05:52:31;;;;;;;10.13;3.53;;;;;;;34.73;41.59;100124.00;5013231;28;20117;-70
2021/07/17 05:55:03;;;;;;;7.07;3.78;;;;;;;34.94;40.62;100125.72;5010002;28;20046;-71
2021/07/17 05:57:32;;;;;;;10.73;3.95;;;;;;;35.03;40.21;100125.69;5012889;28;20495;-71
2021/07/17 05:59:59;;;;;;;12.55;3.30;;;;;;;35.13;40.17;100120.16;4997982;28;20455;-71
2021/07/17 06:02:29;;;;;;;12.73;3.38;;;;;;;35.23;40.00;100120.19;4995176;28;20046;-71
2021/07/17 06:04:57;;;;;;;10.30;4.22;;;;;;;35.34;40.08;100112.63;5012447;28;20130;-70
2021/07/17 06:07:26;;;;;;;11.82;3.60;;;;;;;35.52;40.10;100119.03;5012631;28;20133;-71
2021/07/17 06:09:53;;;;;;;14.65;3.85;;;;;;;35.61;40.03;100116.41;5012407;28;20054;-71
2021/07/17 06:12:22;;;;;;;10.95;3.72;;;;;;;35.56;40.12;100115.00;5012921;28;20137;-71
2021/07/17 06:14:50;;;;;;;15.85;3.85;;;;;;;35.46;40.53;100114.16;5012849;28;20113;-70
2021/07/17 06:17:17;;;;;;;7.05;3.10;;;;;;;35.54;40.56;100118.88;5012930;28;20038;-70
2021/07/17 06:19:45;;;;;;;11.43;3.35;;;;;;;35.58;40.52;100121.16;5012824;28;20044;-70
2021/07/17 06:22:13;;;;;;;15.63;3.53;;;;;;;35.46;40.97;100114.16;5012646;28;20538;-71
2021/07/17 06:24:41;;;;;;;14.13;3.55;;;;;;;35.41;40.95;100108.25;5005297;28;20407;-71
2021/07/17 06:27:10;;;;;;;11.70;4.03;;;;;;;35.39;40.85;100110.28;5011629;28;20053;-70
2021/07/17 06:29:39;;;;;;;11.35;3.20;;;;;;;35.58;40.19;100114.81;5011719;28;20116;-71
2021/07/17 06:32:08;;;;;;;10.55;3.17;;;;;;;35.67;39.65;100111.16;4994674;28;20057;-71
2021/07/17 06:34:35;;;;;;;14.23;3.92;;;;;;;35.70;39.32;100113.66;5012239;28;20038;-70
2021/07/17 06:37:03;;;;;;;14.05;3.20;;;;;;;35.70;38.93;100113.66;5013074;28;20064;-71
2021/07/17 06:39:31;;;;;;;6.70;2.85;;;;;;;35.58;38.41;100111.22;5012710;28;20128;-71
2021/07/17 06:41:59;;;;;;;11.52;3.35;;;;;;;35.39;38.39;100115.78;5012111;28;20129;-71
2021/07/17 06:44:28;;;;;;;12.70;3.30;;;;;;;35.44;38.21;100112.59;5012431;28;20053;-70
2021/07/17 06:46:58;;;;;;;10.02;3.38;;;;;;;35.75;37.46;100116.78;5011441;28;20049;-69
2021/07/17 06:49:28;;;;;;;11.48;3.35;;;;;;;35.82;37.14;100119.78;5011557;28;20117;-70
2021/07/17 06:51:55;;;;;;;14.50;2.83;;;;;;;35.74;36.97;100114.19;5012137;28;20084;-69
2021/07/17 06:54:23;;;;;;;13.50;3.22;;;;;;;35.77;37.08;100116.66;5012903;28;20431;-69
2021/07/17 06:56:52;;;;;;;9.63;2.90;;;;;;;35.51;37.34;100114.56;5011777;28;20510;-69
2021/07/17 06:59:20;;;;;;;10.77;3.05;;;;;;;35.29;38.00;100103.97;4996085;28;20106;-70
2021/07/17 07:01:48;;;;;;;11.07;3.20;;;;;;;35.60;37.79;100109.16;5011772;28;20042;-67
2021/07/17 07:04:18;;;;;;;11.45;2.95;;;;;;;35.48;37.21;100100.28;5011782;28;20033;-69
2021/07/17 07:06:48;;;;;;;9.77;3.20;;;;;;;35.43;37.28;100100.75;5011427;28;20034;-70
2021/07/17 07:09:16;;;;;;;11.82;3.00;;;;;;;35.46;36.92;100099.56;5011078;28;20042;-70
2021/07/17 07:11:43;;;;;;;7.28;2.55;;;;;;;35.55;36.90;100104.16;5011237;28;20034;-70
2021/07/17 07:14:11;;;;;;;11.65;3.60;;;;;;;35.60;36.69;100100.94;5011762;28;20050;-70
2021/07/17 07:16:38;;;;;;;11.23;3.75;;;;;;;35.74;36.61;100111.44;5011324;28;20058;-70
2021/07/17 07:19:06;;;;;;;9.35;3.03;;;;;;;35.46;36.68;100105.03;5011716;28;20408;-70
2021/07/17 07:21:35;;;;;;;10.23;2.63;;;;;;;35.30;36.49;100110.34;5011848;28;20435;-70
2021/07/17 07:24:04;;;;;;;10.90;3.15;;;;;;;35.28;36.98;100104.13;5011520;28;20049;-71
2021/07/17 07:26:53;;;;;;;8.30;3.33;;;;;;;35.32;37.04;100102.78;5009692;28;20053;-70
2021/07/17 07:29:22;;;;;;;7.78;2.72;;;;;;;35.32;36.66;100102.78;5011800;28;20129;-70
2021/07/17 07:31:50;;;;;;;10.23;3.10;;;;;;;35.23;36.23;100106.47;5011148;28;20042;-71
2021/07/17 07:34:22;;;;;;;13.38;3.47;;;;;;;35.18;36.73;100115.13;5011458;28;20032;-70
2021/07/17 07:36:53;;;;;;;8.65;3.25;;;;;;;35.08;37.03;100106.91;5011719;28;20415;-71
2021/07/17 07:39:21;;;;;;;8.93;3.42;;;;;;;35.06;37.06;100105.31;5010429;28;20415;-71
2021/07/17 07:41:50;;;;;;;9.93;3.25;;;;;;;35.03;37.19;100109.22;5006643;28;20046;-71
2021/07/17 08:20:16;;;;;;;9.13;3.25;;;;;;;35.79;35.03;100101.72;5007514;28;20041;-68
2021/07/17 08:22:44;;;;;;;8.07;3.22;;;;;;;36.04;34.92;100113.84;5009207;28;20041;-68
2021/07/17 08:25:13;;;;;;;10.65;3.55;;;;;;;36.20;34.34;100108.56;4975474;28;20045;-70
2021/07/17 08:27:40;;;;;;;11.43;3.05;;;;;;;36.15;34.53;100110.03;5009054;28;20053;-70
2021/07/17 08:30:10;;;;;;;11.52;3.58;;;;;;;36.13;34.24;100104.69;5009495;28;20452;-70
2021/07/17 08:32:38;;;;;;;13.65;2.92;;;;;;;36.20;34.38;100100.31;5008004;28;20040;-70
2021/07/17 08:35:07;;;;;;;11.00;2.47;;;;;;;36.21;34.55;100102.03;5008728;28;20042;-71
2021/07/17 08:37:38;;;;;;;7.78;2.42;;;;;;;36.33;34.33;100100.78;4975361;28;20128;-70
2021/07/17 08:40:08;;;;;;;11.57;2.50;;;;;;;36.21;34.34;100091.03;5001466;28;20089;-71
2021/07/17 08:42:37;;;;;;;10.77;2.60;;;;;;;36.40;33.82;100095.53;5009608;28;20046;-71
2021/07/17 08:45:06;;;;;;;9.95;2.55;;;;;;;36.45;33.84;100092.28;5009334;28;20038;-69
2021/07/17 08:47:37;;;;;;;14.80;3.30;;;;;;;36.42;33.76;100087.97;5008636;28;20076;-70
2021/07/17 08:50:05;;;;;;;10.95;2.53;;;;;;;36.47;33.76;100093.88;5009037;28;20492;-70
2021/07/17 08:52:33;;;;;;;9.70;3.08;;;;;;;36.43;34.04;100088.84;5008702;28;20049;-71
2021/07/17 08:55:05;;;;;;;7.55;2.40;;;;;;;36.46;33.71;100094.00;5009029;28;20061;-70
2021/07/17 08:57:33;;;;;;;9.68;3.05;;;;;;;36.46;33.74;100094.00;5008742;28;20042;-70
2021/07/17 09:00:01;;;;;;;11.73;3.17;;;;;;;36.46;33.66;100096.75;5009659;28;20046;-70
2021/07/17 09:02:28;;;;;;;8.05;2.58;;;;;;;36.62;33.35;100092.28;5009906;28;20046;-70
2021/07/17 09:04:56;;;;;;;8.48;2.53;;;;;;;36.39;33.84;100084.66;5009395;28;20046;-70
2021/07/17 09:07:24;;;;;;;10.02;2.78;;;;;;;36.32;34.10;100090.81;5008271;28;20034;-69
2021/07/17 09:09:51;;;;;;;6.47;2.35;;;;;;;36.26;34.43;100093.31;5003768;28;20050;-70
2021/07/17 09:12:27;;;;;;;7.97;2.58;;;;;;;36.15;34.69;100096.28;5011253;28;20053;-69
2021/07/17 09:14:54;;;;;;;10.52;2.70;;;;;;;36.04;34.67;100094.59;4995996;28;20125;-69
2021/07/17 09:17:26;;;;;;;13.90;2.70;;;;;;;36.33;34.57;100086.16;5007666;28;20548;-69
2021/07/17 09:19:55;;;;;;;7.25;2.60;;;;;;;36.59;34.13;100084.34;5011142;28;20042;-69
2021/07/17 09:22:36;;;;;;;9.63;2.63;;;;;;;36.95;33.48;100085.16;5010490;28;20058;-70
2021/07/17 09:25:11;;;;;;;11.95;3.35;;;;;;;36.93;33.29;100091.84;5011039;28;20052;-70
2021/07/17 09:27:41;;;;;;;8.32;2.50;;;;;;;36.58;33.43;100081.72;5011620;28;20045;-69
2021/07/17 09:30:34;;;;;;;6.47;2.15;;;;;;;36.47;33.88;100090.25;5006608;28;20046;-69
2021/07/17 09:33:04;;;;;;;7.78;2.63;;;;;;;36.80;33.42;100086.75;4991566;28;20052;-69
2021/07/17 09:35:33;;;;;;;10.98;2.40;;;;;;;36.95;33.34;100087.91;5010135;28;20038;-69
2021/07/17 09:38:01;;;;;;;8.57;2.63;;;;;;;36.82;33.56;100092.97;5009821;28;20041;-69
2021/07/17 09:40:41;;;;;;;7.53;2.78;;;;;;;36.64;33.62;100094.84;5010316;28;20046;-70
2021/07/17 09:43:09;;;;;;;8.32;2.83;;;;;;;36.66;34.20;100101.97;5010707;28;20487;-71
2021/07/17 09:45:42;;;;;;;10.85;2.58;;;;;;;36.56;34.19;100103.06;5011175;28;20048;-70
2021/07/17 09:48:23;;;;;;;;;;;;;;;36.01;35.14;100094.94;4998692;28;20045;-70
2021/07/17 09:50:52;;;;;;;9.20;2.67;;;;;;;35.88;35.77;100100.81;5009412;28;19929;-70
2021/07/17 09:53:38;;;;;;;11.73;3.08;;;;;;;36.14;35.22;100103.66;5008957;28;20204;-70
2021/07/17 09:56:06;;;;;;;11.85;2.75;;;;;;;36.03;35.66;100105.78;5009480;28;20056;-71
2021/07/17 09:58:34;;;;;;;10.55;2.65;;;;;;;35.77;36.23;100108.41;5011567;28;20046;-70
2021/07/17 10:01:15;;;;;;;8.55;2.85;;;;;;;35.64;36.34;100111.47;5010424;28;20517;-71
2021/07/17 10:03:43;;;;;;;12.98;3.30;;;;;;;35.90;36.24;100112.53;5008954;28;20049;-71
2021/07/17 10:06:11;;;;;;;11.63;3.20;;;;;;;36.25;35.81;100108.94;5011407;28;20533;-70
2021/07/17 10:08:38;;;;;;;9.23;3.08;;;;;;;36.03;36.18;100122.28;5011954;28;20044;-69
2021/07/17 10:11:12;;;;;;;7.60;3.00;;;;;;;35.44;37.29;100120.84;5029881;28;20049;-71
2021/07/17 10:13:40;;;;;;;11.07;2.78;;;;;;;35.22;38.09;100116.56;5014813;28;20050;-69
2021/07/17 10:16:21;;;;;;;9.02;3.10;;;;;;;35.39;37.88;100121.25;5011779;28;20069;-71
2021/07/17 10:18:49;;;;;;;8.77;2.58;;;;;;;35.56;37.85;100130.59;5011068;28;20509;-71
2021/07/17 10:21:17;;;;;;;8.88;2.83;;;;;;;35.35;38.20;100124.47;5010911;28;20498;-70
2021/07/17 10:23:44;;;;;;;9.85;2.95;;;;;;;34.85;39.36;100123.88;5011650;28;20038;-70
2021/07/17 10:26:13;;;;;;;11.55;3.65;;;;;;;34.81;39.73;100127.91;5010695;28;20038;-70
2021/07/17 10:28:41;;;;;;;10.27;3.05;;;;;;;34.82;39.62;100129.63;5008483;28;20049;-70
2021/07/17 10:31:08;;;;;;;13.95;3.17;;;;;;;34.86;39.63;100129.19;5004904;28;20525;-70
2021/07/17 10:33:37;;;;;;;8.32;2.53;;;;;;;35.16;39.54;100133.59;5011128;28;20047;-70
2021/07/17 10:36:11;;;;;;;11.85;3.30;;;;;;;34.69;40.19;100127.16;5005782;28;20041;-71
2021/07/17 10:38:42;;;;;;;;;;;;;;;34.54;41.09;100126.72;5011838;28;20100;-68
2021/07/17 10:41:13;;;;;;;14.10;3.20;;;;;;;33.99;42.20;100123.66;5009653;28;20305;-70
2021/07/17 10:43:42;;;;;;;12.32;2.90;;;;;;;34.04;42.21;100122.34;5011834;28;20060;-70
2021/07/17 10:46:28;;;;;;;9.57;2.97;;;;;;;34.28;41.27;100122.84;5010556;28;20034;-70
2021/07/17 10:48:58;;;;;;;12.32;3.60;;;;;;;34.30;41.89;100123.56;5011096;28;20038;-71
2021/07/17 10:51:35;;;;;;;13.05;3.13;;;;;;;34.51;41.46;100123.44;5009894;28;20034;-71
2021/07/17 10:54:05;;;;;;;10.38;2.90;;;;;;;34.84;41.06;100119.38;5010305;28;20056;-72
2021/07/17 10:56:46;;;;;;;11.80;2.90;;;;;;;34.76;41.42;100107.28;5010352;28;20046;-71
2021/07/17 10:59:47;;;;;;;9.32;2.70;;;;;;;34.53;41.94;100111.28;5010810;28;20052;-71
2021/07/17 11:02:22;;;;;;;13.40;2.80;;;;;;;34.26;42.16;100112.03;5008767;28;20056;-72
2021/07/17 11:05:08;;;;;;;10.68;2.75;;;;;;;34.53;41.88;100105.81;5009824;28;20038;-71
2021/07/17 11:07:36;;;;;;;13.07;2.83;;;;;;;34.81;40.81;100103.22;4991701;28;20039;-71
2021/07/17 11:10:14;;;;;;;11.88;2.80;;;;;;;35.35;39.74;100110.75;5004071;28;20169;-72
2021/07/17 11:12:51;;;;;;;9.60;2.60;;;;;;;35.45;39.89;100106.06;5006598;28;20054;-71
2021/07/17 11:15:47;;;;;;;16.23;3.17;;;;;;;35.42;39.62;100109.13;5008925;28;20050;-71
2021/07/17 11:18:38;;;;;;;11.60;2.63;;;;;;;35.84;39.45;100107.59;5006570;28;20034;-70
2021/07/17 11:21:10;;;;;;;17.40;3.10;;;;;;;35.84;39.51;100113.09;5008929;28;20424;-71
2021/07/17 11:23:41;;;;;;;10.23;2.28;;;;;;;35.54;40.00;100116.16;5010647;28;20046;-72
2021/07/17 11:26:11;;;;;;;13.38;3.17;;;;;;;35.61;40.55;100108.16;4999126;28;20045;-71
2021/07/17 11:29:05;;;;;;;12.95;2.30;;;;;;;35.62;40.07;100118.13;5008451;28;20577;-71
2021/07/17 11:31:41;;;;;;;;;;;;;;;35.44;39.90;100118.09;4999251;28;20070;-71
2021/07/17 11:34:29;;;;;;;11.80;2.47;;;;;;;35.72;38.99;100116.22;5007529;28;19930;-71
2021/07/17 11:37:02;;;;;;;12.23;2.22;;;;;;;35.62;39.66;100113.50;4993848;28;20049;-72
2021/07/17 11:39:33;;;;;;;12.80;2.28;;;;;;;35.71;39.50;100114.53;5009233;28;20046;-72
2021/07/17 11:42:03;;;;;;;10.90;2.63;;;;;;;35.54;38.90;100114.25;5006758;28;20050;-71
2021/07/17 11:44:33;;;;;;;13.93;2.75;;;;;;;35.81;38.39;100120.81;5008999;28;20057;-71
2021/07/17 11:47:02;;;;;;;9.77;2.03;;;;;;;36.14;37.50;100116.53;5009027;28;20408;-71
2021/07/17 11:49:31;;;;;;;12.07;2.22;;;;;;;36.42;36.64;100125.63;5010053;28;22496;-71
2021/07/17 11:52:01;;;;;;;10.48;2.33;;;;;;;36.57;36.45;100121.28;5009665;28;20042;-72
2021/07/17 11:54:30;;;;;;;9.63;2.10;;;;;;;36.74;36.13;100125.94;5008660;28;20045;-72
2021/07/17 11:57:10;;;;;;;13.45;2.15;;;;;;;36.84;35.93;100126.69;5009102;28;20049;-71
2021/07/17 11:59:39;;;;;;;9.95;2.50;;;;;;;36.48;36.15;100125.00;5009343;28;20491;-72
2021/07/17 12:02:11;;;;;;;7.93;1.90;;;;;;;36.18;37.26;100116.09;5009293;28;20046;-72
2021/07/17 12:04:45;;;;;;;13.85;2.50;;;;;;;36.38;36.76;100115.94;5009875;28;20137;-71
2021/07/17 12:07:16;;;;;;;11.23;2.15;;;;;;;36.61;36.54;100117.19;5008369;28;20038;-71